Time;durP1;ratioP1;P1;durP2;ratioP2;P2;SDS_P1;SDS_P2;PMS_P1;PMS_P2;Temp;Humidity;BMP_temperature;BMP_pressure;BME280_temperature;BME280_humidity;BME280_pressure;Samples;Min_cycle;Max_cycle;Signal;HPM_P1;HPM_P2
2021/08/13 00:01:39;;;;;;;10.98;7.53;;;;;;;22.15;62.58;97594.41;4994947;28;20030;-77
2021/08/13 00:04:07;;;;;;;9.15;7.00;;;;;;;22.06;62.70;97593.63;5004361;28;20064;-77
2021/08/13 00:06:32;;;;;;;9.75;7.80;;;;;;;21.88;62.92;97575.03;4995744;28;20026;-77
2021/08/13 00:08:57;;;;;;;9.77;7.45;;;;;;;21.84;63.15;97574.06;4992524;28;20627;-77
2021/08/13 00:11:23;;;;;;;8.35;7.55;;;;;;;21.97;62.52;97593.59;4992405;28;20084;-77
2021/08/13 00:13:48;;;;;;;8.13;7.03;;;;;;;22.01;62.25;97593.78;4998788;28;20077;-77
2021/08/13 00:16:14;;;;;;;8.00;7.20;;;;;;;22.04;62.28;97585.19;4996092;28;20095;-77
2021/08/13 00:18:39;;;;;;;8.77;6.93;;;;;;;22.03;62.58;97591.59;4995452;28;20105;-77
2021/08/13 00:21:04;;;;;;;7.88;6.75;;;;;;;22.03;62.44;97589.69;4995156;28;20413;-77
2021/08/13 00:23:30;;;;;;;8.57;7.25;;;;;;;22.18;61.84;97604.41;5008646;28;20077;-77
2021/08/13 00:25:55;;;;;;;7.88;7.07;;;;;;;22.14;61.87;97603.47;5003152;28;20041;-77
2021/08/13 00:28:20;;;;;;;9.13;7.25;;;;;;;22.15;62.22;97610.31;4979272;28;20092;-77
2021/08/13 00:30:46;;;;;;;8.60;7.05;;;;;;;22.17;62.01;97608.13;4977073;28;20370;-77
2021/08/13 00:33:11;;;;;;;14.10;7.53;;;;;;;22.18;62.53;97609.72;4992363;28;20066;-77
2021/08/13 00:35:37;;;;;;;8.90;7.25;;;;;;;22.10;62.73;97607.81;4952485;28;20076;-77
2021/08/13 00:38:02;;;;;;;8.90;7.43;;;;;;;22.05;62.72;97594.69;4977117;28;20041;-77
2021/08/13 00:40:28;;;;;;;10.38;7.65;;;;;;;22.09;62.43;97598.31;4972714;28;20070;-77
2021/08/13 00:42:54;;;;;;;8.68;6.82;;;;;;;22.13;62.47;97603.78;4978980;28;20450;-77
2021/08/13 00:45:20;;;;;;;8.45;7.25;;;;;;;22.16;62.63;97603.94;4995602;28;20366;-77
2021/08/13 00:47:47;;;;;;;8.80;7.05;;;;;;;22.15;62.46;97604.25;4959257;28;20126;-77
2021/08/13 00:50:13;;;;;;;7.95;7.15;;;;;;;22.17;62.53;97596.75;4990131;28;20101;-77
2021/08/13 00:52:38;;;;;;;8.82;7.40;;;;;;;22.18;62.58;97593.78;4973239;28;20129;-77
2021/08/13 00:55:05;;;;;;;8.27;7.00;;;;;;;22.13;62.47;97606.44;4978874;28;20461;-77
2021/08/13 00:57:31;;;;;;;8.13;7.32;;;;;;;22.19;62.57;97608.63;4962146;28;20038;-77
2021/08/13 00:59:56;;;;;;;7.47;6.07;;;;;;;22.20;62.85;97604.09;4965063;28;20025;-77
2021/08/13 01:02:24;;;;;;;7.80;7.00;;;;;;;22.17;62.40;97592.22;4985162;28;20030;-77
2021/08/13 01:04:49;;;;;;;8.15;6.45;;;;;;;22.21;62.01;97592.41;4973136;28;20069;-77
2021/08/13 01:07:15;;;;;;;8.57;7.25;;;;;;;22.20;61.95;97585.53;4991114;28;20069;-77
2021/08/13 01:09:40;;;;;;;8.63;6.85;;;;;;;22.15;62.20;97567.13;4983776;28;20216;-77
2021/08/13 01:12:14;;;;;;;7.10;6.40;;;;;;;22.23;62.17;97569.78;4975517;28;20460;-77
2021/08/13 01:14:46;;;;;;;7.75;6.93;;;;;;;22.15;62.11;97575.06;4992540;28;20128;-77
2021/08/13 01:17:13;;;;;;;8.68;7.38;;;;;;;22.21;62.40;97579.16;4984925;28;20027;-77
2021/08/13 01:19:53;;;;;;;8.23;7.43;;;;;;;22.18;62.45;97572.56;4965834;28;20050;-77
2021/08/13 01:22:24;;;;;;;7.38;6.60;;;;;;;22.07;62.46;97555.38;5007013;28;20065;-77
2021/08/13 01:24:53;;;;;;;9.25;7.25;;;;;;;22.10;62.43;97552.13;4969176;28;20410;-77
2021/08/13 01:27:31;;;;;;;8.23;7.32;;;;;;;22.17;62.16;97568.34;4990255;28;20068;-77
2021/08/13 01:30:07;;;;;;;7.68;6.60;;;;;;;22.07;62.73;97560.69;4976425;28;20026;-77
2021/08/13 01:32:33;;;;;;;7.85;7.03;;;;;;;22.23;62.85;97569.78;4960978;28;20022;-77
2021/08/13 01:35:03;;;;;;;9.18;7.15;;;;;;;22.20;62.06;97594.25;4989598;28;20042;-77
2021/08/13 01:37:30;;;;;;;8.20;6.57;;;;;;;22.34;61.58;97601.34;4977423;28;20084;-77
2021/08/13 01:39:59;;;;;;;11.05;7.10;;;;;;;22.39;61.16;97601.19;4970575;28;20108;-78
2021/08/13 01:42:30;;;;;;;10.23;7.15;;;;;;;22.28;61.20;97611.31;4958799;28;20053;-77
2021/08/13 01:44:56;;;;;;;8.13;6.43;;;;;;;22.33;61.43;97591.81;4977064;28;20076;-77
2021/08/13 01:47:22;;;;;;;9.18;7.18;;;;;;;22.33;61.22;97594.47;5003933;28;20093;-77
2021/08/13 01:49:50;;;;;;;7.75;6.95;;;;;;;22.25;62.25;97596.78;4973914;28;20035;-77
2021/08/13 01:52:17;;;;;;;9.95;7.82;;;;;;;22.11;62.13;97598.00;4958287;28;20496;-77
2021/08/13 01:54:44;;;;;;;8.93;7.53;;;;;;;21.97;62.65;97598.09;4999179;28;20039;-78
2021/08/13 01:57:11;;;;;;;11.18;7.45;;;;;;;22.06;62.42;97620.16;4961025;28;20374;-78
2021/08/13 01:59:38;;;;;;;7.60;6.80;;;;;;;22.08;62.28;97625.91;4960739;28;20026;-78
2021/08/13 02:02:04;;;;;;;10.60;7.88;;;;;;;22.14;62.47;97624.69;4962877;28;20033;-77
2021/08/13 02:04:30;;;;;;;8.90;7.80;;;;;;;22.22;62.02;97642.47;4970256;28;20030;-77
2021/08/13 02:06:56;;;;;;;11.15;7.55;;;;;;;22.21;62.40;97642.81;4976865;28;20518;-77
2021/08/13 02:09:22;;;;;;;9.90;7.97;;;;;;;22.18;62.61;97640.75;4977046;28;20096;-77
2021/08/13 02:11:48;;;;;;;10.05;7.60;;;;;;;22.24;62.51;97639.50;4961256;28;20331;-77
2021/08/13 02:14:16;;;;;;;9.80;7.32;;;;;;;22.19;62.76;97632.50;5009598;28;20022;-77
2021/08/13 02:16:44;;;;;;;8.93;7.95;;;;;;;22.16;62.98;97621.72;4986489;28;20359;-77
2021/08/13 02:19:15;;;;;;;10.20;7.95;;;;;;;22.11;63.05;97630.59;4976768;28;20030;-77
2021/08/13 02:21:46;;;;;;;9.07;8.05;;;;;;;22.17;63.26;97644.50;4976599;28;20030;-77
2021/08/13 02:24:12;;;;;;;10.57;8.82;;;;;;;22.27;63.32;97638.91;4991390;28;20069;-77
2021/08/13 02:26:38;;;;;;;11.15;8.40;;;;;;;22.33;62.84;97635.06;4980785;28;20477;-77
2021/08/13 02:29:03;;;;;;;10.02;8.10;;;;;;;22.37;62.78;97616.63;4973346;28;20026;-77
2021/08/13 02:31:32;;;;;;;8.68;7.65;;;;;;;22.34;62.65;97620.69;4989478;28;20033;-77
2021/08/13 02:33:57;;;;;;;8.10;7.10;;;;;;;22.46;62.68;97638.66;4976183;28;20037;-77
2021/08/13 02:36:30;;;;;;;9.75;8.40;;;;;;;22.37;62.99;97659.88;4990148;28;20031;-77
2021/08/13 02:39:02;;;;;;;8.65;7.72;;;;;;;22.35;63.13;97685.16;4989601;28;20022;-77
2021/08/13 02:41:32;;;;;;;8.38;7.28;;;;;;;22.54;62.79;97712.19;4953616;28;20034;-77
2021/08/13 02:44:00;;;;;;;8.02;7.15;;;;;;;22.62;62.91;97706.13;4972645;28;20033;-77
2021/08/13 02:46:53;;;;;;;15.40;9.13;;;;;;;22.20;64.92;97668.53;4976148;28;20033;-76
2021/08/13 02:49:20;;;;;;;14.18;8.60;;;;;;;22.37;65.03;97656.44;4968541;28;20082;-76
2021/08/13 02:51:50;;;;;;;13.05;9.32;;;;;;;22.34;64.91;97665.00;4975001;28;20398;-76
2021/08/13 02:54:22;;;;;;;14.48;9.32;;;;;;;22.11;66.38;97657.13;4975260;28;20473;-76
2021/08/13 02:56:55;;;;;;;13.13;8.95;;;;;;;22.06;66.65;97666.00;4972357;28;20511;-76
2021/08/13 02:59:24;;;;;;;14.35;9.98;;;;;;;22.11;67.24;97662.44;4959030;28;20543;-76
2021/08/13 03:01:52;;;;;;;11.10;8.30;;;;;;;21.99;67.29;97664.91;4958282;28;20033;-76
2021/08/13 03:04:18;;;;;;;14.48;10.68;;;;;;;21.87;67.95;97660.94;4974467;28;20168;-76
2021/08/13 03:06:45;;;;;;;10.90;8.98;;;;;;;21.86;67.72;97659.38;4986422;28;20021;-76
2021/08/13 03:09:12;;;;;;;12.35;8.82;;;;;;;21.79;68.20;97656.38;4991110;28;20511;-76
2021/08/13 03:11:40;;;;;;;10.70;8.25;;;;;;;21.81;67.96;97653.44;4974536;28;20129;-76
2021/08/13 03:14:07;;;;;;;12.30;9.13;;;;;;;21.74;68.43;97655.75;4980934;28;20026;-76
2021/08/13 03:16:33;;;;;;;10.80;8.88;;;;;;;21.69;68.59;97656.66;4981135;28;20038;-76
2021/08/13 03:19:00;;;;;;;10.65;9.00;;;;;;;21.68;68.73;97649.81;4982006;28;20120;-76
2021/08/13 03:21:26;;;;;;;11.02;9.27;;;;;;;21.64;68.72;97654.13;4965192;28;20037;-76
2021/08/13 03:23:53;;;;;;;14.73;10.05;;;;;;;21.63;68.92;97653.34;4966227;28;20033;-76
2021/08/13 03:26:18;;;;;;;11.70;9.48;;;;;;;21.61;68.87;97654.72;5013985;28;20116;-76
2021/08/13 03:28:43;;;;;;;15.50;10.77;;;;;;;21.60;69.33;97653.19;4981486;28;20140;-76
2021/08/13 03:31:09;;;;;;;13.20;10.40;;;;;;;21.59;69.68;97641.00;5004930;28;20033;-76
2021/08/13 03:33:35;;;;;;;12.20;9.98;;;;;;;21.59;69.21;97638.34;4981261;28;20041;-76
2021/08/13 03:36:01;;;;;;;11.27;10.13;;;;;;;21.59;69.43;97641.81;4979777;28;20018;-76
2021/08/13 03:38:26;;;;;;;12.60;10.18;;;;;;;21.65;69.17;97637.91;4998323;28;20412;-77
2021/08/13 03:40:51;;;;;;;9.80;8.80;;;;;;;21.71;69.06;97643.88;5002756;28;20041;-77
2021/08/13 03:43:17;;;;;;;10.13;9.05;;;;;;;21.78;68.90;97638.13;5014926;28;20034;-77
2021/08/13 03:45:42;;;;;;;10.45;9.35;;;;;;;21.81;69.25;97643.59;4966285;28;20026;-77
2021/08/13 03:48:07;;;;;;;11.82;9.80;;;;;;;21.86;68.88;97645.34;4995482;28;20038;-77
2021/08/13 03:50:33;;;;;;;10.82;9.40;;;;;;;21.86;69.19;97647.97;4962161;28;20030;-77
2021/08/13 03:52:59;;;;;;;10.52;9.43;;;;;;;21.86;68.92;97654.06;5005193;28;20389;-77
2021/08/13 03:55:24;;;;;;;10.75;9.65;;;;;;;21.79;69.09;97650.31;4998788;28;20084;-77
2021/08/13 03:57:50;;;;;;;11.70;9.63;;;;;;;21.86;69.28;97650.63;5015224;28;20465;-77
2021/08/13 04:00:15;;;;;;;13.25;11.02;;;;;;;21.85;69.08;97655.16;4981795;28;20037;-77
2021/08/13 04:02:41;;;;;;;11.15;9.93;;;;;;;21.92;69.23;97659.22;4995521;28;20041;-77
2021/08/13 04:05:07;;;;;;;10.82;9.27;;;;;;;22.00;68.65;97656.63;4969764;28;20076;-77
2021/08/13 04:07:32;;;;;;;10.23;9.10;;;;;;;22.05;68.84;97653.84;4981866;28;20511;-77
2021/08/13 04:09:58;;;;;;;11.43;10.07;;;;;;;21.92;68.63;97652.06;4981864;28;20034;-76
2021/08/13 04:12:23;;;;;;;11.02;9.90;;;;;;;21.89;69.31;97648.16;4998449;28;20128;-77
2021/08/13 04:14:49;;;;;;;11.75;9.52;;;;;;;21.92;69.38;97643.31;5016375;28;20104;-77
2021/08/13 04:17:14;;;;;;;11.45;8.73;;;;;;;21.89;69.37;97634.13;4976448;28;20038;-77
2021/08/13 04:19:41;;;;;;;10.68;9.65;;;;;;;21.91;69.17;97625.88;4978025;28;20042;-77
2021/08/13 04:22:07;;;;;;;11.13;10.02;;;;;;;22.02;68.96;97637.75;5000970;28;20034;-77
2021/08/13 04:24:33;;;;;;;10.20;8.82;;;;;;;22.02;68.85;97632.44;5012624;28;20038;-77
2021/08/13 04:27:00;;;;;;;11.07;8.77;;;;;;;21.99;68.17;97627.78;4962236;28;20021;-79
2021/08/13 04:29:25;;;;;;;9.82;8.23;;;;;;;21.99;68.62;97622.47;4961665;28;20026;-79
2021/08/13 04:31:51;;;;;;;9.82;8.70;;;;;;;21.97;68.52;97632.56;4977039;28;20045;-77
2021/08/13 04:34:16;;;;;;;12.10;9.55;;;;;;;21.85;68.75;97626.00;4976123;28;20078;-79
2021/08/13 04:36:41;;;;;;;9.73;8.73;;;;;;;21.83;68.36;97628.19;4990524;28;20035;-79
2021/08/13 04:39:09;;;;;;;9.43;8.38;;;;;;;21.81;68.49;97630.34;4974884;28;20038;-79
2021/08/13 04:41:34;;;;;;;9.43;8.52;;;;;;;21.80;68.47;97628.03;4990982;28;20175;-79
2021/08/13 04:44:00;;;;;;;10.90;8.75;;;;;;;21.75;68.60;97631.59;4975267;28;20054;-78
2021/08/13 04:46:25;;;;;;;11.23;8.75;;;;;;;21.74;68.68;97619.41;4975033;28;20114;-79
2021/08/13 04:48:50;;;;;;;9.55;8.55;;;;;;;21.73;68.50;97623.16;4991590;28;20065;-78
2021/08/13 04:51:16;;;;;;;9.38;8.40;;;;;;;21.77;68.62;97623.31;4992150;28;20026;-79
2021/08/13 04:53:44;;;;;;;11.05;8.35;;;;;;;21.68;68.18;97623.28;4989335;28;20053;-78
2021/08/13 04:56:09;;;;;;;9.65;8.57;;;;;;;21.71;68.58;97617.38;4978041;28;20117;-79
2021/08/13 04:58:35;;;;;;;10.82;9.05;;;;;;;21.70;68.65;97624.53;5011820;28;20130;-78
2021/08/13 05:01:00;;;;;;;10.23;9.13;;;;;;;21.74;68.84;97619.41;4991788;28;20044;-79
2021/08/13 05:03:27;;;;;;;10.85;8.85;;;;;;;21.80;68.13;97620.06;4996246;28;20034;-79
2021/08/13 05:05:53;;;;;;;9.35;8.38;;;;;;;21.85;69.01;97622.59;4973888;28;20113;-79
2021/08/13 05:08:18;;;;;;;10.43;8.43;;;;;;;21.85;67.96;97631.31;4966629;28;20164;-79
2021/08/13 05:10:43;;;;;;;9.50;7.82;;;;;;;21.92;68.42;97628.22;4993165;28;20060;-79
2021/08/13 05:13:09;;;;;;;10.57;8.43;;;;;;;21.85;68.67;97622.59;4964112;28;20038;-78
2021/08/13 05:15:34;;;;;;;9.57;8.02;;;;;;;21.92;68.91;97627.41;4995570;28;20488;-79
2021/08/13 05:17:59;;;;;;;9.45;7.80;;;;;;;22.01;68.53;97630.88;4960671;28;20056;-79
2021/08/13 05:20:25;;;;;;;9.80;8.57;;;;;;;22.07;68.58;97634.94;4956529;28;20038;-79
2021/08/13 05:22:50;;;;;;;10.93;8.60;;;;;;;22.09;68.80;97632.78;4989879;28;20045;-79
2021/08/13 05:25:18;;;;;;;11.82;8.77;;;;;;;22.11;68.42;97635.13;4975779;28;20028;-79
2021/08/13 05:27:46;;;;;;;9.30;8.27;;;;;;;22.20;68.95;97644.66;4973185;28;20029;-79
2021/08/13 05:30:13;;;;;;;9.20;7.72;;;;;;;22.30;68.50;97650.81;4945497;28;20171;-79
2021/08/13 05:32:40;;;;;;;10.00;7.70;;;;;;;22.28;68.60;97639.69;4988352;28;20030;-79
2021/08/13 05:35:07;;;;;;;9.55;8.52;;;;;;;22.34;69.04;97649.09;5001252;28;20070;-79
2021/08/13 05:37:32;;;;;;;9.82;8.35;;;;;;;22.40;68.98;97640.69;4976847;28;20374;-79
2021/08/13 05:39:58;;;;;;;9.40;8.18;;;;;;;22.43;68.79;97647.22;4977117;28;20029;-79
2021/08/13 05:42:23;;;;;;;7.93;7.13;;;;;;;22.38;68.92;97650.81;4993608;28;20084;-79
2021/08/13 05:44:48;;;;;;;8.63;7.72;;;;;;;22.41;68.96;97652.88;4990457;28;20034;-79
2021/08/13 05:47:14;;;;;;;8.20;7.40;;;;;;;22.44;68.81;97654.09;4976354;28;20086;-79
2021/08/13 05:49:39;;;;;;;8.88;6.95;;;;;;;22.50;68.84;97660.84;4994454;28;20041;-79
2021/08/13 05:52:05;;;;;;;8.90;8.00;;;;;;;22.57;68.12;97671.00;4991865;28;20396;-78
2021/08/13 05:54:31;;;;;;;7.53;6.82;;;;;;;22.55;68.58;97671.31;4973690;28;20034;-78
2021/08/13 05:56:57;;;;;;;9.35;8.45;;;;;;;22.57;68.36;97690.34;4998301;28;20408;-78
2021/08/13 05:59:24;;;;;;;9.80;8.80;;;;;;;22.55;67.88;97686.41;4977083;28;20064;-79
2021/08/13 06:01:50;;;;;;;10.55;9.35;;;;;;;22.50;67.89;97679.41;4993004;28;20033;-79
2021/08/13 06:04:15;;;;;;;9.65;8.45;;;;;;;22.61;68.75;97691.28;4977005;28;20445;-79
2021/08/13 06:06:43;;;;;;;9.02;8.10;;;;;;;22.67;69.02;97680.50;4993157;28;20522;-79
2021/08/13 06:09:08;;;;;;;8.63;7.78;;;;;;;22.78;68.72;97679.13;4977156;28;20121;-80
2021/08/13 06:11:34;;;;;;;10.40;8.30;;;;;;;22.87;67.89;97687.88;4976778;28;20422;-78
2021/08/13 06:14:00;;;;;;;9.30;8.35;;;;;;;22.90;68.21;97692.56;4986738;28;20040;-78
2021/08/13 06:16:31;;;;;;;9.30;8.20;;;;;;;22.86;67.91;97686.31;4976449;28;20026;-79
2021/08/13 06:18:57;;;;;;;9.52;8.10;;;;;;;23.04;67.63;97691.63;5009909;28;20116;-79
2021/08/13 06:21:22;;;;;;;9.23;8.20;;;;;;;23.10;67.49;97699.16;4953778;28;20168;-79
2021/08/13 06:23:48;;;;;;;11.77;7.78;;;;;;;23.22;67.79;97698.53;4987807;28;20125;-79
2021/08/13 06:26:13;;;;;;;9.60;7.25;;;;;;;23.32;67.98;97697.41;5005127;28;20029;-79
2021/08/13 06:28:39;;;;;;;8.63;6.97;;;;;;;23.49;67.84;97693.94;4993078;28;20108;-78
2021/08/13 06:31:05;;;;;;;7.88;6.93;;;;;;;23.67;67.69;97698.13;4976907;28;20037;-79
2021/08/13 06:33:30;;;;;;;8.43;7.05;;;;;;;23.74;67.18;97698.41;4976304;28;20381;-78
2021/08/13 06:35:56;;;;;;;8.60;6.75;;;;;;;23.91;67.18;97702.16;4976255;28;20135;-78
2021/08/13 06:38:21;;;;;;;7.78;6.68;;;;;;;24.02;66.10;97700.69;4976640;28;20044;-79
2021/08/13 06:40:46;;;;;;;8.65;6.40;;;;;;;24.22;65.32;97706.41;4975786;28;20477;-79
2021/08/13 06:43:12;;;;;;;6.95;6.15;;;;;;;24.39;65.50;97703.63;4976029;28;20128;-79
2021/08/13 06:45:37;;;;;;;6.32;5.72;;;;;;;24.56;64.73;97697.47;5010017;28;20111;-78
2021/08/13 06:48:03;;;;;;;8.75;6.93;;;;;;;24.78;64.90;97704.38;4991797;28;20041;-79
2021/08/13 06:50:28;;;;;;;7.28;6.07;;;;;;;25.08;64.27;97709.63;4976118;28;20036;-79
2021/08/13 06:52:54;;;;;;;7.45;6.13;;;;;;;25.18;63.67;97705.78;4992637;28;20037;-79
2021/08/13 06:55:19;;;;;;;6.65;5.80;;;;;;;25.35;62.66;97708.31;4976530;28;20105;-79
2021/08/13 06:57:44;;;;;;;9.98;6.30;;;;;;;25.46;63.51;97716.66;4992257;28;20033;-78
2021/08/13 07:00:12;;;;;;;6.05;5.45;;;;;;;25.48;63.38;97721.66;4992063;28;20038;-78
2021/08/13 07:02:37;;;;;;;6.30;5.70;;;;;;;25.67;62.34;97718.50;4974585;28;20033;-79
2021/08/13 07:05:03;;;;;;;6.45;5.28;;;;;;;25.70;61.66;97723.94;4956710;28;20058;-78
2021/08/13 07:07:35;;;;;;;7.82;5.72;;;;;;;25.77;61.34;97724.22;4989356;28;20088;-78
2021/08/13 07:10:05;;;;;;;7.47;5.38;;;;;;;25.77;61.97;97726.88;4976569;28;20073;-78
2021/08/13 07:12:30;;;;;;;6.15;5.47;;;;;;;25.86;61.69;97732.13;4989487;28;20037;-78
2021/08/13 07:14:56;;;;;;;7.78;5.60;;;;;;;25.88;61.41;97724.56;4967703;28;20026;-78
2021/08/13 07:17:21;;;;;;;8.10;5.60;;;;;;;26.02;60.19;97724.25;5003055;28;20038;-78
2021/08/13 07:19:47;;;;;;;7.10;4.93;;;;;;;25.98;61.43;97713.47;4972872;28;20482;-78
2021/08/13 07:22:12;;;;;;;6.90;5.25;;;;;;;26.17;60.47;97720.94;4996516;28;20060;-78
2021/08/13 07:24:39;;;;;;;7.95;5.20;;;;;;;26.28;60.08;97729.25;4961401;28;20030;-78
2021/08/13 07:27:05;;;;;;;8.02;5.20;;;;;;;26.34;59.76;97730.63;5010581;28;20072;-79
2021/08/13 07:29:30;;;;;;;7.43;5.57;;;;;;;26.32;59.38;97732.84;4976106;28;20034;-79
2021/08/13 07:31:56;;;;;;;8.43;5.30;;;;;;;26.41;59.23;97729.25;4976466;28;20038;-78
2021/08/13 07:34:22;;;;;;;9.00;5.55;;;;;;;26.52;58.94;97746.41;4965147;28;20038;-78
2021/08/13 07:36:47;;;;;;;7.50;6.10;;;;;;;26.55;59.07;97756.41;4990808;28;20038;-79
2021/08/13 07:39:13;;;;;;;9.30;5.72;;;;;;;26.58;58.58;97761.09;4972092;28;20070;-78
2021/08/13 07:41:39;;;;;;;8.50;6.03;;;;;;;26.65;58.57;97749.88;4978166;28;20500;-78
2021/08/13 07:44:04;;;;;;;7.90;5.72;;;;;;;26.67;59.24;97748.41;4992026;28;20384;-78
2021/08/13 07:46:29;;;;;;;6.50;5.18;;;;;;;26.92;58.79;97759.03;4959634;28;20026;-78
2021/08/13 07:48:55;;;;;;;7.38;5.88;;;;;;;27.01;56.42;97757.03;4950128;28;20030;-78
2021/08/13 07:51:20;;;;;;;7.72;5.13;;;;;;;26.87;57.52;97761.94;4989884;28;20029;-78
2021/08/13 07:53:45;;;;;;;7.13;5.70;;;;;;;26.71;59.89;97759.19;5005233;28;20034;-78
2021/08/13 07:56:11;;;;;;;7.68;5.60;;;;;;;27.01;57.65;97753.59;4976145;28;20037;-78
2021/08/13 07:58:36;;;;;;;9.10;5.35;;;;;;;27.22;58.31;97756.84;4976767;28;20025;-78
2021/08/13 08:01:02;;;;;;;7.07;5.63;;;;;;;27.47;55.60;97756.81;4980025;28;20299;-78
2021/08/13 08:03:27;;;;;;;8.20;5.28;;;;;;;27.48;56.84;97760.25;4978615;28;20045;-77
2021/08/13 08:05:53;;;;;;;6.07;5.47;;;;;;;27.73;55.81;97761.69;4996049;28;20110;-79
2021/08/13 08:08:18;;;;;;;7.03;5.15;;;;;;;27.90;55.96;97770.50;4963370;28;20357;-78
2021/08/13 08:10:46;;;;;;;6.05;5.07;;;;;;;27.97;53.53;97773.41;4978797;28;20548;-78
2021/08/13 08:13:15;;;;;;;6.82;5.18;;;;;;;27.80;54.35;97772.56;4979618;28;20068;-79
2021/08/13 08:15:40;;;;;;;6.80;5.03;;;;;;;28.11;54.53;97783.69;4995066;28;20113;-78
2021/08/13 08:18:06;;;;;;;7.07;5.22;;;;;;;28.19;54.85;97785.41;4978888;28;20113;-78
2021/08/13 08:20:32;;;;;;;7.22;5.65;;;;;;;28.19;54.82;97764.00;4991090;28;20037;-78
2021/08/13 08:22:57;;;;;;;9.88;5.57;;;;;;;28.40;55.27;97777.88;4987977;28;20113;-78
2021/08/13 08:25:22;;;;;;;7.95;5.60;;;;;;;28.66;53.12;97781.16;4962866;28;20065;-79
2021/08/13 08:27:48;;;;;;;6.63;5.07;;;;;;;28.79;54.04;97790.63;4978662;28;20047;-79
2021/08/13 08:30:14;;;;;;;6.53;4.90;;;;;;;28.70;53.28;97784.69;4991344;28;20034;-79
2021/08/13 08:32:39;;;;;;;7.43;5.28;;;;;;;28.54;54.13;97779.31;4992475;28;20025;-79
2021/08/13 08:35:09;;;;;;;8.18;5.55;;;;;;;28.70;53.96;97784.69;4991704;28;20643;-79
2021/08/13 08:37:58;;;;;;;9.52;5.60;;;;;;;28.64;52.53;97783.41;4978436;28;20034;-79
2021/08/13 08:40:33;;;;;;;6.88;5.75;;;;;;;28.94;51.28;97791.72;4978381;28;20117;-79
2021/08/13 08:43:00;;;;;;;7.22;6.25;;;;;;;29.08;52.29;97792.03;4962447;28;20026;-79
2021/08/13 08:45:28;;;;;;;5.80;5.18;;;;;;;29.24;51.23;97789.31;4978028;28;20750;-79
2021/08/13 08:47:59;;;;;;;5.63;5.13;;;;;;;29.28;51.36;97795.50;4994823;28;20104;-79
2021/08/13 08:50:26;;;;;;;7.57;5.78;;;;;;;29.48;50.32;97792.84;4961632;28;20032;-79
2021/08/13 08:52:51;;;;;;;8.32;5.15;;;;;;;29.60;50.02;97795.38;4978364;28;20113;-79
2021/08/13 08:55:19;;;;;;;5.72;5.03;;;;;;;29.62;50.02;97793.09;4996299;28;20045;-79
2021/08/13 08:57:45;;;;;;;7.75;4.90;;;;;;;29.64;50.11;97796.19;4989387;28;20038;-79
2021/08/13 09:00:11;;;;;;;7.18;5.85;;;;;;;29.70;50.90;97792.09;4977375;28;20287;-79
2021/08/13 09:02:41;;;;;;;7.70;5.95;;;;;;;29.73;51.06;97793.28;4988271;28;20105;-79
2021/08/13 09:05:07;;;;;;;6.50;5.70;;;;;;;29.96;50.61;97797.94;4990188;28;20034;-79
2021/08/13 09:07:32;;;;;;;8.70;5.95;;;;;;;30.06;49.61;97792.75;5006062;28;20323;-79
2021/08/13 09:10:00;;;;;;;6.35;5.72;;;;;;;30.33;49.13;97800.88;4991392;28;20141;-79
2021/08/13 09:12:26;;;;;;;7.15;5.60;;;;;;;30.29;50.45;97800.03;4991324;28;20042;-79
2021/08/13 09:14:52;;;;;;;7.05;5.97;;;;;;;30.44;49.55;97803.75;4958293;28;20441;-79
2021/08/13 09:17:17;;;;;;;6.60;5.38;;;;;;;30.55;49.66;97809.28;4999920;28;20038;-77
2021/08/13 09:19:45;;;;;;;7.28;6.07;;;;;;;30.66;47.79;97799.47;4973384;28;20030;-78
2021/08/13 09:22:13;;;;;;;7.72;5.80;;;;;;;30.69;48.06;97803.31;4973829;28;20030;-79
2021/08/13 09:24:41;;;;;;;6.53;5.85;;;;;;;30.72;48.68;97810.69;5004955;28;20397;-78
2021/08/13 09:27:30;;;;;;;8.27;5.75;;;;;;;30.54;48.53;97813.13;4974195;28;20031;-79
2021/08/13 09:30:05;;;;;;;7.03;5.85;;;;;;;30.62;48.01;97815.53;4968118;28;20046;-79
2021/08/13 09:32:31;;;;;;;6.20;5.40;;;;;;;30.72;48.17;97803.38;4999043;28;20448;-79
2021/08/13 09:34:57;;;;;;;6.97;5.45;;;;;;;30.72;51.09;97808.75;4990120;28;20497;-79
2021/08/13 09:37:23;;;;;;;9.68;6.40;;;;;;;30.79;49.53;97808.88;4973624;28;20067;-79
2021/08/13 09:39:58;;;;;;;8.25;6.45;;;;;;;31.04;48.11;97808.47;4990073;28;20092;-79
2021/08/13 09:42:34;;;;;;;7.65;5.53;;;;;;;31.07;47.22;97813.13;5001199;28;20034;-79
2021/08/13 09:45:05;;;;;;;6.63;5.53;;;;;;;31.16;47.75;97810.91;4993423;28;20034;-79
2021/08/13 09:47:42;;;;;;;6.40;5.30;;;;;;;31.39;47.26;97807.34;4961205;28;20053;-79
2021/08/13 09:50:11;;;;;;;8.63;5.97;;;;;;;31.42;47.28;97803.91;4976344;28;20041;-79
2021/08/13 09:52:37;;;;;;;10.23;6.05;;;;;;;31.47;47.53;97813.59;4976741;28;20036;-79
2021/08/13 09:55:10;;;;;;;6.18;5.47;;;;;;;31.86;46.19;97808.63;4992761;28;20033;-79
2021/08/13 09:57:44;;;;;;;6.45;5.78;;;;;;;31.79;46.40;97813.97;4991916;28;20040;-79
2021/08/13 10:00:11;;;;;;;10.07;6.57;;;;;;;31.66;46.99;97801.91;4941327;28;20045;-79
2021/08/13 10:02:40;;;;;;;7.47;5.78;;;;;;;31.68;48.08;97813.06;4966128;28;20297;-79
2021/08/13 10:05:17;;;;;;;6.05;5.45;;;;;;;31.91;45.86;97800.22;4992614;28;20038;-79
2021/08/13 10:07:53;;;;;;;7.47;5.28;;;;;;;32.08;45.18;97804.25;5010047;28;20117;-79
2021/08/13 10:10:23;;;;;;;9.27;5.65;;;;;;;32.01;45.71;97816.84;4960370;28;20025;-79
2021/08/13 10:12:49;;;;;;;6.72;5.82;;;;;;;32.01;45.65;97808.75;4976271;28;20030;-79
2021/08/13 10:15:28;;;;;;;11.00;5.97;;;;;;;32.04;45.24;97805.34;5010030;28;20044;-78
2021/08/13 10:17:58;;;;;;;6.45;5.10;;;;;;;32.23;45.44;97801.66;4992691;28;20090;-79
2021/08/13 10:20:25;;;;;;;6.03;5.43;;;;;;;32.51;44.58;97798.44;4989594;28;20073;-79
2021/08/13 10:22:51;;;;;;;7.05;5.75;;;;;;;32.59;44.51;97797.31;4962308;28;20026;-79
2021/08/13 10:25:18;;;;;;;7.95;5.85;;;;;;;32.69;44.86;97792.41;4989519;28;20593;-79
2021/08/13 10:27:43;;;;;;;6.57;5.90;;;;;;;32.82;43.12;97799.03;4989433;28;20061;-78
2021/08/13 10:30:09;;;;;;;5.75;5.22;;;;;;;32.98;43.00;97796.78;4978110;28;20033;-79
2021/08/13 10:32:36;;;;;;;8.40;5.97;;;;;;;33.05;44.04;97798.75;4975898;28;20026;-79
2021/08/13 10:35:02;;;;;;;7.88;6.13;;;;;;;33.24;42.79;97800.41;4992264;28;20042;-78
2021/08/13 10:37:27;;;;;;;6.43;5.85;;;;;;;33.16;44.19;97796.91;4976823;28;20040;-79
2021/08/13 10:39:55;;;;;;;8.23;5.90;;;;;;;32.92;44.97;97790.22;4976000;28;20123;-79
2021/08/13 10:42:22;;;;;;;8.23;5.88;;;;;;;33.04;44.71;97792.59;4976216;28;20651;-79
2021/08/13 10:44:55;;;;;;;6.00;5.43;;;;;;;33.51;44.28;97802.81;4992404;28;20104;-79
2021/08/13 10:47:26;;;;;;;7.05;6.25;;;;;;;33.69;41.67;97790.16;4976501;28;20176;-79
2021/08/13 10:49:55;;;;;;;6.78;5.72;;;;;;;33.82;42.06;97795.94;4976552;28;20055;-78
2021/08/13 10:52:33;;;;;;;8.15;6.28;;;;;;;33.51;41.72;97792.00;4990003;28;20033;-79
2021/08/13 10:54:59;;;;;;;6.07;5.57;;;;;;;33.20;44.02;97794.22;4981474;28;20436;-79
2021/08/13 10:58:00;;;;;;;7.78;6.50;;;;;;;32.99;45.48;97805.69;4967397;28;20038;-79
2021/08/13 11:00:25;;;;;;;6.55;5.85;;;;;;;33.43;42.14;97799.31;4916012;29;20055;-79
2021/08/13 11:03:18;;;;;;;7.70;6.15;;;;;;;33.54;41.30;97799.34;4899826;29;20035;-79
2021/08/13 11:06:00;;;;;;;6.35;5.72;;;;;;;33.72;40.55;97800.16;4948140;28;20043;-79
2021/08/13 11:08:51;;;;;;;8.52;6.15;;;;;;;33.81;41.17;97809.84;4948011;28;20114;-79
2021/08/13 11:11:16;;;;;;;7.00;6.30;;;;;;;33.82;42.27;97812.16;4945097;28;20039;-79
2021/08/13 11:13:44;;;;;;;7.35;6.65;;;;;;;33.99;41.40;97805.22;4947983;28;20053;-79
2021/08/13 11:16:25;;;;;;;6.78;6.13;;;;;;;34.05;40.54;97803.72;4929299;29;20579;-79
2021/08/13 11:18:57;;;;;;;8.60;6.95;;;;;;;34.03;40.89;97799.84;4939988;28;20119;-79
2021/08/13 11:21:35;;;;;;;7.72;6.93;;;;;;;33.96;41.80;97804.09;4932262;28;20605;-79
2021/08/13 11:24:12;;;;;;;8.05;6.90;;;;;;;33.81;40.84;97802.53;4949887;28;20043;-79
2021/08/13 11:26:58;;;;;;;7.35;6.65;;;;;;;33.76;39.92;97797.50;4949663;28;20035;-79
2021/08/13 11:31:58;;;;;;;8.38;6.13;;;;;;;33.56;40.16;97792.41;4950117;28;20094;-79
2021/08/13 11:34:46;;;;;;;7.72;6.88;;;;;;;33.39;43.52;97799.28;4964080;28;20053;-79
2021/08/13 11:37:29;;;;;;;7.35;6.63;;;;;;;33.26;42.07;97806.19;5012766;28;20038;-78